sensor_id;sensor_type;location;lat;lon;timestamp;P1;durP1;ratioP1;P2;durP2;ratioP2
11090;SDS011;5599;52.210;21.046;2022-10-04T00:01:44;7.27;;;6.63;;
11090;SDS011;5599;52.210;21.046;2022-10-04T00:04:16;7.03;;;6.33;;
11090;SDS011;5599;52.210;21.046;2022-10-04T00:06:52;7.23;;;6.53;;
11090;SDS011;5599;52.210;21.046;2022-10-04T00:09:27;7.10;;;5.60;;
11090;SDS011;5599;52.210;21.046;2022-10-04T00:12:02;7.70;;;5.43;;
11090;SDS011;5599;52.210;21.046;2022-10-04T00:14:34;6.70;;;5.47;;
11090;SDS011;5599;52.210;21.046;2022-10-04T00:17:09;9.33;;;6.03;;
11090;SDS011;5599;52.210;21.046;2022-10-04T00:19:42;6.17;;;5.57;;
11090;SDS011;5599;52.210;21.046;2022-10-04T00:22:16;7.87;;;5.90;;
11090;SDS011;5599;52.210;21.046;2022-10-04T00:25:00;7.53;;;5.67;;
11090;SDS011;5599;52.210;21.046;2022-10-04T00:31:13;7.03;;;5.43;;
11090;SDS011;5599;52.210;21.046;2022-10-04T00:33:48;7.03;;;5.30;;
11090;SDS011;5599;52.210;21.046;2022-10-04T00:36:30;8.47;;;5.43;;
11090;SDS011;5599;52.210;21.046;2022-10-04T00:39:16;7.13;;;5.53;;
11090;SDS011;5599;52.210;21.046;2022-10-04T00:45:12;9.50;;;5.57;;
11090;SDS011;5599;52.210;21.046;2022-10-04T00:48:00;7.27;;;5.30;;
11090;SDS011;5599;52.210;21.046;2022-10-04T00:51:00;9.43;;;5.03;;
11090;SDS011;5599;52.210;21.046;2022-10-04T00:53:49;7.07;;;5.20;;
11090;SDS011;5599;52.210;21.046;2022-10-04T00:56:27;5.97;;;5.30;;
11090;SDS011;5599;52.210;21.046;2022-10-04T01:01:57;6.37;;;4.70;;
11090;SDS011;5599;52.210;21.046;2022-10-04T01:04:37;6.67;;;5.20;;
11090;SDS011;5599;52.210;21.046;2022-10-04T01:07:10;7.70;;;4.67;;
11090;SDS011;5599;52.210;21.046;2022-10-04T01:09:44;6.67;;;5.00;;
11090;SDS011;5599;52.210;21.046;2022-10-04T01:12:21;8.53;;;5.03;;
11090;SDS011;5599;52.210;21.046;2022-10-04T01:15:05;8.87;;;4.47;;
11090;SDS011;5599;52.210;21.046;2022-10-04T01:17:37;8.97;;;5.17;;
11090;SDS011;5599;52.210;21.046;2022-10-04T01:20:23;7.43;;;4.87;;
11090;SDS011;5599;52.210;21.046;2022-10-04T01:23:02;12.03;;;5.07;;
11090;SDS011;5599;52.210;21.046;2022-10-04T01:25:45;6.93;;;4.93;;
11090;SDS011;5599;52.210;21.046;2022-10-04T01:28:15;6.27;;;4.43;;
11090;SDS011;5599;52.210;21.046;2022-10-04T01:30:45;10.67;;;4.97;;
11090;SDS011;5599;52.210;21.046;2022-10-04T01:33:14;7.20;;;4.50;;
11090;SDS011;5599;52.210;21.046;2022-10-04T01:35:43;7.43;;;5.07;;
11090;SDS011;5599;52.210;21.046;2022-10-04T01:38:13;7.40;;;4.90;;
11090;SDS011;5599;52.210;21.046;2022-10-04T01:40:44;5.37;;;3.93;;
11090;SDS011;5599;52.210;21.046;2022-10-04T01:43:18;4.23;;;3.83;;
11090;SDS011;5599;52.210;21.046;2022-10-04T01:45:52;5.67;;;4.10;;
11090;SDS011;5599;52.210;21.046;2022-10-04T01:48:26;4.83;;;3.80;;
11090;SDS011;5599;52.210;21.046;2022-10-04T01:51:00;6.80;;;3.97;;
11090;SDS011;5599;52.210;21.046;2022-10-04T01:53:35;9.73;;;4.17;;
11090;SDS011;5599;52.210;21.046;2022-10-04T01:56:11;6.17;;;3.93;;
11090;SDS011;5599;52.210;21.046;2022-10-04T01:58:45;8.43;;;4.33;;
11090;SDS011;5599;52.210;21.046;2022-10-04T02:01:20;4.47;;;3.77;;
11090;SDS011;5599;52.210;21.046;2022-10-04T02:03:57;7.60;;;4.10;;
11090;SDS011;5599;52.210;21.046;2022-10-04T02:06:30;6.17;;;3.93;;
11090;SDS011;5599;52.210;21.046;2022-10-04T02:09:08;7.17;;;3.97;;
11090;SDS011;5599;52.210;21.046;2022-10-04T02:11:39;7.53;;;3.70;;
11090;SDS011;5599;52.210;21.046;2022-10-04T02:14:11;8.57;;;4.03;;
11090;SDS011;5599;52.210;21.046;2022-10-04T02:16:44;8.00;;;3.73;;
11090;SDS011;5599;52.210;21.046;2022-10-04T02:19:18;6.20;;;3.80;;
11090;SDS011;5599;52.210;21.046;2022-10-04T02:21:50;4.73;;;3.23;;
11090;SDS011;5599;52.210;21.046;2022-10-04T02:24:20;6.77;;;3.67;;
11090;SDS011;5599;52.210;21.046;2022-10-04T02:26:50;5.13;;;3.83;;
11090;SDS011;5599;52.210;21.046;2022-10-04T02:29:20;5.47;;;3.60;;
11090;SDS011;5599;52.210;21.046;2022-10-04T02:31:49;4.70;;;3.33;;
11090;SDS011;5599;52.210;21.046;2022-10-04T02:34:36;3.50;;;3.20;;
11090;SDS011;5599;52.210;21.046;2022-10-04T02:37:07;4.87;;;3.10;;
11090;SDS011;5599;52.210;21.046;2022-10-04T02:39:41;7.60;;;3.73;;
11090;SDS011;5599;52.210;21.046;2022-10-04T02:42:13;4.87;;;3.37;;
11090;SDS011;5599;52.210;21.046;2022-10-04T02:44:49;5.70;;;3.47;;
11090;SDS011;5599;52.210;21.046;2022-10-04T02:47:24;4.80;;;3.30;;
11090;SDS011;5599;52.210;21.046;2022-10-04T02:49:57;6.80;;;3.67;;
11090;SDS011;5599;52.210;21.046;2022-10-04T02:52:28;5.73;;;2.90;;
11090;SDS011;5599;52.210;21.046;2022-10-04T02:55:03;3.57;;;2.93;;
11090;SDS011;5599;52.210;21.046;2022-10-04T02:57:36;4.73;;;3.33;;
11090;SDS011;5599;52.210;21.046;2022-10-04T03:00:12;4.67;;;2.83;;
11090;SDS011;5599;52.210;21.046;2022-10-04T03:05:42;4.50;;;2.87;;
11090;SDS011;5599;52.210;21.046;2022-10-04T03:08:15;4.40;;;2.70;;
11090;SDS011;5599;52.210;21.046;2022-10-04T03:10:45;4.20;;;2.80;;
11090;SDS011;5599;52.210;21.046;2022-10-04T03:13:15;5.03;;;3.17;;
11090;SDS011;5599;52.210;21.046;2022-10-04T03:15:47;6.20;;;2.90;;
11090;SDS011;5599;52.210;21.046;2022-10-04T03:18:16;3.47;;;2.63;;
11090;SDS011;5599;52.210;21.046;2022-10-04T03:20:46;5.87;;;3.33;;
11090;SDS011;5599;52.210;21.046;2022-10-04T03:23:16;5.10;;;2.90;;
11090;SDS011;5599;52.210;21.046;2022-10-04T03:25:52;7.37;;;3.33;;
11090;SDS011;5599;52.210;21.046;2022-10-04T03:28:27;3.23;;;2.63;;
11090;SDS011;5599;52.210;21.046;2022-10-04T03:30:57;4.87;;;3.30;;
11090;SDS011;5599;52.210;21.046;2022-10-04T03:33:26;4.43;;;2.93;;
11090;SDS011;5599;52.210;21.046;2022-10-04T03:35:57;3.57;;;2.87;;
11090;SDS011;5599;52.210;21.046;2022-10-04T03:38:28;6.10;;;3.10;;
11090;SDS011;5599;52.210;21.046;2022-10-04T03:41:03;4.37;;;2.97;;
11090;SDS011;5599;52.210;21.046;2022-10-04T03:43:32;3.90;;;3.00;;
11090;SDS011;5599;52.210;21.046;2022-10-04T03:46:09;5.40;;;2.93;;
11090;SDS011;5599;52.210;21.046;2022-10-04T03:48:42;4.87;;;3.17;;
11090;SDS011;5599;52.210;21.046;2022-10-04T03:51:17;5.13;;;3.23;;
11090;SDS011;5599;52.210;21.046;2022-10-04T03:53:49;6.70;;;3.90;;
11090;SDS011;5599;52.210;21.046;2022-10-04T03:56:23;5.80;;;3.40;;
11090;SDS011;5599;52.210;21.046;2022-10-04T03:58:54;5.97;;;3.40;;
11090;SDS011;5599;52.210;21.046;2022-10-04T04:04:16;7.20;;;3.90;;
11090;SDS011;5599;52.210;21.046;2022-10-04T04:06:51;5.87;;;3.83;;
11090;SDS011;5599;52.210;21.046;2022-10-04T04:09:33;9.47;;;4.77;;
11090;SDS011;5599;52.210;21.046;2022-10-04T04:12:10;7.20;;;4.10;;
11090;SDS011;5599;52.210;21.046;2022-10-04T04:14:44;10.27;;;4.23;;
11090;SDS011;5599;52.210;21.046;2022-10-04T04:17:18;6.93;;;4.13;;
11090;SDS011;5599;52.210;21.046;2022-10-04T04:20:03;5.57;;;3.87;;
11090;SDS011;5599;52.210;21.046;2022-10-04T04:22:34;7.37;;;4.10;;
11090;SDS011;5599;52.210;21.046;2022-10-04T04:25:05;6.50;;;3.47;;
11090;SDS011;5599;52.210;21.046;2022-10-04T04:27:41;7.30;;;4.37;;
11090;SDS011;5599;52.210;21.046;2022-10-04T04:30:14;4.87;;;3.93;;
11090;SDS011;5599;52.210;21.046;2022-10-04T04:32:45;6.87;;;4.33;;
11090;SDS011;5599;52.210;21.046;2022-10-04T04:35:21;5.90;;;3.77;;
11090;SDS011;5599;52.210;21.046;2022-10-04T04:38:04;5.93;;;3.93;;
11090;SDS011;5599;52.210;21.046;2022-10-04T04:40:41;5.00;;;3.63;;
11090;SDS011;5599;52.210;21.046;2022-10-04T04:43:13;7.23;;;3.83;;
11090;SDS011;5599;52.210;21.046;2022-10-04T04:45:46;5.10;;;4.10;;
11090;SDS011;5599;52.210;21.046;2022-10-04T04:48:36;6.60;;;3.73;;
11090;SDS011;5599;52.210;21.046;2022-10-04T04:51:05;7.93;;;4.20;;
11090;SDS011;5599;52.210;21.046;2022-10-04T04:53:35;7.63;;;4.20;;
11090;SDS011;5599;52.210;21.046;2022-10-04T04:56:12;6.43;;;3.90;;
11090;SDS011;5599;52.210;21.046;2022-10-04T04:58:48;8.40;;;4.43;;
11090;SDS011;5599;52.210;21.046;2022-10-04T05:01:21;6.17;;;4.10;;
11090;SDS011;5599;52.210;21.046;2022-10-04T05:03:59;4.57;;;4.13;;
11090;SDS011;5599;52.210;21.046;2022-10-04T05:06:30;8.47;;;4.83;;
11090;SDS011;5599;52.210;21.046;2022-10-04T05:09:03;7.77;;;3.83;;
11090;SDS011;5599;52.210;21.046;2022-10-04T05:11:33;8.53;;;3.70;;
11090;SDS011;5599;52.210;21.046;2022-10-04T05:14:06;6.67;;;3.80;;
11090;SDS011;5599;52.210;21.046;2022-10-04T05:16:39;7.50;;;4.10;;
11090;SDS011;5599;52.210;21.046;2022-10-04T05:19:12;7.03;;;3.43;;
11090;SDS011;5599;52.210;21.046;2022-10-04T05:21:47;5.17;;;3.33;;
11090;SDS011;5599;52.210;21.046;2022-10-04T05:24:20;3.93;;;3.37;;
11090;SDS011;5599;52.210;21.046;2022-10-04T05:26:53;6.10;;;3.33;;
11090;SDS011;5599;52.210;21.046;2022-10-04T05:29:26;4.30;;;3.30;;
11090;SDS011;5599;52.210;21.046;2022-10-04T05:32:03;5.20;;;3.30;;
11090;SDS011;5599;52.210;21.046;2022-10-04T05:34:39;4.97;;;3.57;;
11090;SDS011;5599;52.210;21.046;2022-10-04T05:37:15;8.10;;;3.43;;
11090;SDS011;5599;52.210;21.046;2022-10-04T05:40:01;3.93;;;3.40;;
11090;SDS011;5599;52.210;21.046;2022-10-04T05:42:35;10.40;;;3.67;;
11090;SDS011;5599;52.210;21.046;2022-10-04T05:45:15;8.30;;;3.30;;
11090;SDS011;5599;52.210;21.046;2022-10-04T05:47:46;3.30;;;3.00;;
11090;SDS011;5599;52.210;21.046;2022-10-04T05:50:18;7.47;;;3.70;;
11090;SDS011;5599;52.210;21.046;2022-10-04T05:52:53;4.97;;;3.07;;
11090;SDS011;5599;52.210;21.046;2022-10-04T05:55:42;7.80;;;3.77;;
11090;SDS011;5599;52.210;21.046;2022-10-04T05:58:23;6.40;;;3.30;;
11090;SDS011;5599;52.210;21.046;2022-10-04T06:01:12;4.63;;;2.80;;
11090;SDS011;5599;52.210;21.046;2022-10-04T06:06:53;4.87;;;3.00;;
11090;SDS011;5599;52.210;21.046;2022-10-04T06:09:34;6.03;;;2.70;;
11090;SDS011;5599;52.210;21.046;2022-10-04T06:12:15;4.60;;;2.90;;
11090;SDS011;5599;52.210;21.046;2022-10-04T06:14:59;5.53;;;3.17;;
11090;SDS011;5599;52.210;21.046;2022-10-04T06:17:50;7.80;;;2.90;;
11090;SDS011;5599;52.210;21.046;2022-10-04T06:20:42;6.43;;;3.00;;
11090;SDS011;5599;52.210;21.046;2022-10-04T06:23:21;6.60;;;2.97;;
11090;SDS011;5599;52.210;21.046;2022-10-04T06:25:55;6.30;;;3.63;;
11090;SDS011;5599;52.210;21.046;2022-10-04T06:28:41;4.73;;;2.80;;
11090;SDS011;5599;52.210;21.046;2022-10-04T06:32:03;6.43;;;3.17;;
11090;SDS011;5599;52.210;21.046;2022-10-04T06:35:23;5.13;;;3.07;;
11090;SDS011;5599;52.210;21.046;2022-10-04T06:38:50;5.20;;;2.67;;
11090;SDS011;5599;52.210;21.046;2022-10-04T06:41:41;6.63;;;2.70;;
11090;SDS011;5599;52.210;21.046;2022-10-04T06:47:52;4.47;;;2.87;;
11090;SDS011;5599;52.210;21.046;2022-10-04T06:50:37;6.80;;;3.00;;
11090;SDS011;5599;52.210;21.046;2022-10-04T06:53:22;4.63;;;2.50;;
11090;SDS011;5599;52.210;21.046;2022-10-04T06:56:03;6.77;;;3.20;;
11090;SDS011;5599;52.210;21.046;2022-10-04T07:01:45;6.07;;;3.00;;
11090;SDS011;5599;52.210;21.046;2022-10-04T07:04:23;5.77;;;3.17;;
11090;SDS011;5599;52.210;21.046;2022-10-04T07:07:22;4.07;;;2.77;;
11090;SDS011;5599;52.210;21.046;2022-10-04T07:10:11;3.43;;;2.77;;
11090;SDS011;5599;52.210;21.046;2022-10-04T07:13:03;5.03;;;3.00;;
11090;SDS011;5599;52.210;21.046;2022-10-04T07:15:42;4.40;;;2.97;;
11090;SDS011;5599;52.210;21.046;2022-10-04T07:18:19;6.47;;;3.07;;
11090;SDS011;5599;52.210;21.046;2022-10-04T07:20:57;4.57;;;3.13;;
11090;SDS011;5599;52.210;21.046;2022-10-04T07:23:32;6.47;;;3.53;;
11090;SDS011;5599;52.210;21.046;2022-10-04T07:26:13;6.73;;;3.23;;
11090;SDS011;5599;52.210;21.046;2022-10-04T07:28:50;5.30;;;3.23;;
11090;SDS011;5599;52.210;21.046;2022-10-04T07:31:40;4.27;;;2.90;;
11090;SDS011;5599;52.210;21.046;2022-10-04T07:34:13;4.43;;;3.30;;
11090;SDS011;5599;52.210;21.046;2022-10-04T07:36:47;6.53;;;3.33;;
11090;SDS011;5599;52.210;21.046;2022-10-04T07:39:22;6.17;;;3.20;;
11090;SDS011;5599;52.210;21.046;2022-10-04T07:41:56;5.83;;;2.90;;
11090;SDS011;5599;52.210;21.046;2022-10-04T07:44:34;3.30;;;2.43;;
11090;SDS011;5599;52.210;21.046;2022-10-04T07:47:10;2.73;;;2.47;;
11090;SDS011;5599;52.210;21.046;2022-10-04T07:49:46;4.50;;;2.70;;
11090;SDS011;5599;52.210;21.046;2022-10-04T07:52:24;4.23;;;2.37;;
11090;SDS011;5599;52.210;21.046;2022-10-04T07:55:06;4.87;;;2.70;;
11090;SDS011;5599;52.210;21.046;2022-10-04T07:57:47;4.77;;;2.50;;
11090;SDS011;5599;52.210;21.046;2022-10-04T08:00:26;4.10;;;2.80;;
11090;SDS011;5599;52.210;21.046;2022-10-04T08:03:10;4.33;;;2.47;;
11090;SDS011;5599;52.210;21.046;2022-10-04T08:05:49;3.73;;;2.17;;
11090;SDS011;5599;52.210;21.046;2022-10-04T08:08:30;7.33;;;2.93;;
11090;SDS011;5599;52.210;21.046;2022-10-04T08:11:13;3.60;;;2.37;;
11090;SDS011;5599;52.210;21.046;2022-10-04T08:13:50;4.83;;;2.40;;
11090;SDS011;5599;52.210;21.046;2022-10-04T08:16:31;3.40;;;2.43;;
11090;SDS011;5599;52.210;21.046;2022-10-04T08:19:09;3.10;;;2.00;;
11090;SDS011;5599;52.210;21.046;2022-10-04T08:22:02;3.37;;;2.10;;
11090;SDS011;5599;52.210;21.046;2022-10-04T08:24:46;4.23;;;2.43;;
11090;SDS011;5599;52.210;21.046;2022-10-04T08:27:34;6.23;;;2.20;;
11090;SDS011;5599;52.210;21.046;2022-10-04T08:30:45;4.07;;;2.30;;
11090;SDS011;5599;52.210;21.046;2022-10-04T08:33:43;5.27;;;2.53;;
11090;SDS011;5599;52.210;21.046;2022-10-04T08:36:26;4.53;;;2.10;;
11090;SDS011;5599;52.210;21.046;2022-10-04T08:39:15;3.07;;;2.47;;
11090;SDS011;5599;52.210;21.046;2022-10-04T08:51:34;4.53;;;2.53;;
11090;SDS011;5599;52.210;21.046;2022-10-04T08:58:15;4.43;;;2.13;;
11090;SDS011;5599;52.210;21.046;2022-10-04T09:01:14;2.30;;;1.97;;
11090;SDS011;5599;52.210;21.046;2022-10-04T09:07:07;3.50;;;2.20;;
11090;SDS011;5599;52.210;21.046;2022-10-04T09:10:04;3.13;;;1.80;;
11090;SDS011;5599;52.210;21.046;2022-10-04T09:12:55;2.87;;;1.90;;
11090;SDS011;5599;52.210;21.046;2022-10-04T09:15:36;1.80;;;1.60;;
11090;SDS011;5599;52.210;21.046;2022-10-04T09:18:27;4.10;;;2.03;;
11090;SDS011;5599;52.210;21.046;2022-10-04T09:21:33;2.57;;;1.90;;
11090;SDS011;5599;52.210;21.046;2022-10-04T09:27:25;2.00;;;1.73;;
11090;SDS011;5599;52.210;21.046;2022-10-04T09:30:21;2.43;;;1.50;;
11090;SDS011;5599;52.210;21.046;2022-10-04T09:33:09;2.17;;;1.50;;
11090;SDS011;5599;52.210;21.046;2022-10-04T09:36:08;2.40;;;1.90;;
11090;SDS011;5599;52.210;21.046;2022-10-04T09:39:12;2.20;;;1.70;;
11090;SDS011;5599;52.210;21.046;2022-10-04T09:42:13;4.23;;;1.70;;
11090;SDS011;5599;52.210;21.046;2022-10-04T09:45:06;4.27;;;3.63;;
11090;SDS011;5599;52.210;21.046;2022-10-04T09:47:56;2.30;;;1.80;;
11090;SDS011;5599;52.210;21.046;2022-10-04T09:51:04;2.43;;;1.73;;
11090;SDS011;5599;52.210;21.046;2022-10-04T09:54:09;3.50;;;1.73;;
11090;SDS011;5599;52.210;21.046;2022-10-04T09:57:00;2.73;;;1.83;;
11090;SDS011;5599;52.210;21.046;2022-10-04T09:59:47;5.83;;;2.27;;
11090;SDS011;5599;52.210;21.046;2022-10-04T10:02:38;3.20;;;2.20;;
11090;SDS011;5599;52.210;21.046;2022-10-04T10:05:29;4.27;;;2.17;;
11090;SDS011;5599;52.210;21.046;2022-10-04T10:08:32;3.37;;;1.67;;
11090;SDS011;5599;52.210;21.046;2022-10-04T10:11:13;2.47;;;1.63;;
11090;SDS011;5599;52.210;21.046;2022-10-04T10:17:37;3.33;;;1.60;;
11090;SDS011;5599;52.210;21.046;2022-10-04T10:20:18;2.20;;;1.50;;
11090;SDS011;5599;52.210;21.046;2022-10-04T10:26:50;5.63;;;2.03;;
11090;SDS011;5599;52.210;21.046;2022-10-04T10:29:34;4.20;;;2.30;;
11090;SDS011;5599;52.210;21.046;2022-10-04T10:32:26;3.00;;;2.00;;
11090;SDS011;5599;52.210;21.046;2022-10-04T10:35:10;1.77;;;1.50;;
11090;SDS011;5599;52.210;21.046;2022-10-04T10:40:54;4.23;;;2.10;;
11090;SDS011;5599;52.210;21.046;2022-10-04T10:43:55;1.83;;;1.57;;
11090;SDS011;5599;52.210;21.046;2022-10-04T10:46:51;2.53;;;1.80;;
11090;SDS011;5599;52.210;21.046;2022-10-04T10:49:35;2.87;;;1.80;;
11090;SDS011;5599;52.210;21.046;2022-10-04T10:55:27;1.90;;;1.70;;
11090;SDS011;5599;52.210;21.046;2022-10-04T10:58:29;5.57;;;2.50;;
11090;SDS011;5599;52.210;21.046;2022-10-04T11:01:29;2.25;;;2.05;;
11090;SDS011;5599;52.210;21.046;2022-10-04T11:04:34;2.10;;;1.83;;
11090;SDS011;5599;52.210;21.046;2022-10-04T11:07:25;2.43;;;2.00;;
11090;SDS011;5599;52.210;21.046;2022-10-04T11:10:26;2.43;;;1.60;;
11090;SDS011;5599;52.210;21.046;2022-10-04T11:13:21;3.20;;;1.63;;
11090;SDS011;5599;52.210;21.046;2022-10-04T11:16:18;2.00;;;1.53;;
11090;SDS011;5599;52.210;21.046;2022-10-04T11:19:24;5.60;;;1.73;;
11090;SDS011;5599;52.210;21.046;2022-10-04T11:22:26;2.33;;;1.73;;
11090;SDS011;5599;52.210;21.046;2022-10-04T11:25:37;2.20;;;1.70;;
11090;SDS011;5599;52.210;21.046;2022-10-04T11:28:25;5.82;;;1.80;;
11090;SDS011;5599;52.210;21.046;2022-10-04T11:31:11;5.70;;;2.80;;
11090;SDS011;5599;52.210;21.046;2022-10-04T11:34:20;6.83;;;1.80;;
11090;SDS011;5599;52.210;21.046;2022-10-04T11:37:10;3.00;;;1.60;;
11090;SDS011;5599;52.210;21.046;2022-10-04T11:39:51;6.97;;;2.87;;
11090;SDS011;5599;52.210;21.046;2022-10-04T11:42:39;4.07;;;2.40;;
11090;SDS011;5599;52.210;21.046;2022-10-04T11:45:31;4.80;;;2.10;;
11090;SDS011;5599;52.210;21.046;2022-10-04T11:48:14;4.17;;;2.10;;
11090;SDS011;5599;52.210;21.046;2022-10-04T11:51:05;3.10;;;1.87;;
11090;SDS011;5599;52.210;21.046;2022-10-04T11:54:08;6.10;;;1.87;;
11090;SDS011;5599;52.210;21.046;2022-10-04T11:57:07;4.80;;;2.10;;
11090;SDS011;5599;52.210;21.046;2022-10-04T11:59:45;2.40;;;1.70;;
11090;SDS011;5599;52.210;21.046;2022-10-04T12:02:30;2.93;;;1.60;;
11090;SDS011;5599;52.210;21.046;2022-10-04T12:08:38;5.67;;;2.40;;
11090;SDS011;5599;52.210;21.046;2022-10-04T12:11:33;4.83;;;3.37;;
11090;SDS011;5599;52.210;21.046;2022-10-04T12:14:36;4.87;;;2.57;;
11090;SDS011;5599;52.210;21.046;2022-10-04T12:17:35;2.10;;;1.80;;
11090;SDS011;5599;52.210;21.046;2022-10-04T12:20:34;3.90;;;2.00;;
11090;SDS011;5599;52.210;21.046;2022-10-04T12:23:31;2.70;;;1.88;;
11090;SDS011;5599;52.210;21.046;2022-10-04T12:32:37;2.93;;;1.80;;
11090;SDS011;5599;52.210;21.046;2022-10-04T12:35:26;1.47;;;1.37;;
11090;SDS011;5599;52.210;21.046;2022-10-04T12:38:15;3.13;;;1.90;;
11090;SDS011;5599;52.210;21.046;2022-10-04T12:41:10;1.83;;;1.60;;
11090;SDS011;5599;52.210;21.046;2022-10-04T12:43:51;2.87;;;2.00;;
11090;SDS011;5599;52.210;21.046;2022-10-04T12:46:31;2.63;;;1.77;;
11090;SDS011;5599;52.210;21.046;2022-10-04T12:49:12;2.33;;;1.77;;
11090;SDS011;5599;52.210;21.046;2022-10-04T12:51:51;3.23;;;2.20;;
11090;SDS011;5599;52.210;21.046;2022-10-04T12:54:31;4.67;;;1.90;;
11090;SDS011;5599;52.210;21.046;2022-10-04T12:57:13;3.73;;;2.13;;
11090;SDS011;5599;52.210;21.046;2022-10-04T12:59:58;5.73;;;2.00;;
11090;SDS011;5599;52.210;21.046;2022-10-04T13:02:42;4.17;;;1.90;;
11090;SDS011;5599;52.210;21.046;2022-10-04T13:05:22;3.53;;;2.40;;
11090;SDS011;5599;52.210;21.046;2022-10-04T13:08:19;5.47;;;2.47;;
11090;SDS011;5599;52.210;21.046;2022-10-04T13:14:30;3.87;;;2.53;;
11090;SDS011;5599;52.210;21.046;2022-10-04T13:17:14;3.33;;;2.20;;
11090;SDS011;5599;52.210;21.046;2022-10-04T13:23:10;3.80;;;2.03;;
11090;SDS011;5599;52.210;21.046;2022-10-04T13:26:00;1.93;;;1.63;;
11090;SDS011;5599;52.210;21.046;2022-10-04T13:28:45;4.40;;;2.33;;
11090;SDS011;5599;52.210;21.046;2022-10-04T13:31:25;3.70;;;2.00;;
11090;SDS011;5599;52.210;21.046;2022-10-04T13:34:04;2.67;;;2.03;;
11090;SDS011;5599;52.210;21.046;2022-10-04T13:36:47;3.10;;;2.13;;
11090;SDS011;5599;52.210;21.046;2022-10-04T13:39:39;3.20;;;2.17;;
11090;SDS011;5599;52.210;21.046;2022-10-04T13:42:30;5.33;;;2.37;;
11090;SDS011;5599;52.210;21.046;2022-10-04T13:45:32;5.53;;;3.30;;
11090;SDS011;5599;52.210;21.046;2022-10-04T13:48:20;3.17;;;2.10;;
11090;SDS011;5599;52.210;21.046;2022-10-04T13:51:23;2.97;;;1.83;;
11090;SDS011;5599;52.210;21.046;2022-10-04T13:54:12;2.30;;;1.97;;
11090;SDS011;5599;52.210;21.046;2022-10-04T13:57:15;2.13;;;1.67;;
11090;SDS011;5599;52.210;21.046;2022-10-04T13:59:53;2.50;;;1.80;;
11090;SDS011;5599;52.210;21.046;2022-10-04T14:09:11;2.83;;;2.00;;
11090;SDS011;5599;52.210;21.046;2022-10-04T14:15:39;2.47;;;1.77;;
11090;SDS011;5599;52.210;21.046;2022-10-04T14:18:29;4.63;;;2.13;;
11090;SDS011;5599;52.210;21.046;2022-10-04T14:27:52;3.53;;;2.00;;
11090;SDS011;5599;52.210;21.046;2022-10-04T14:30:49;3.53;;;2.00;;
11090;SDS011;5599;52.210;21.046;2022-10-04T14:33:53;4.07;;;2.10;;
11090;SDS011;5599;52.210;21.046;2022-10-04T14:36:55;2.13;;;1.80;;
11090;SDS011;5599;52.210;21.046;2022-10-04T14:39:58;3.27;;;1.90;;
11090;SDS011;5599;52.210;21.046;2022-10-04T14:42:53;3.87;;;2.00;;
11090;SDS011;5599;52.210;21.046;2022-10-04T14:46:00;2.73;;;2.10;;
11090;SDS011;5599;52.210;21.046;2022-10-04T14:48:46;3.27;;;2.03;;
11090;SDS011;5599;52.210;21.046;2022-10-04T14:54:30;2.60;;;2.07;;
11090;SDS011;5599;52.210;21.046;2022-10-04T14:57:11;3.00;;;2.07;;
11090;SDS011;5599;52.210;21.046;2022-10-04T15:00:07;4.27;;;2.23;;
11090;SDS011;5599;52.210;21.046;2022-10-04T15:08:59;2.23;;;1.73;;
11090;SDS011;5599;52.210;21.046;2022-10-04T15:11:46;2.90;;;2.10;;
11090;SDS011;5599;52.210;21.046;2022-10-04T15:14:41;2.13;;;1.83;;
11090;SDS011;5599;52.210;21.046;2022-10-04T15:17:40;1.70;;;1.53;;
11090;SDS011;5599;52.210;21.046;2022-10-04T15:20:24;3.87;;;2.10;;
11090;SDS011;5599;52.210;21.046;2022-10-04T15:23:06;6.47;;;2.50;;
11090;SDS011;5599;52.210;21.046;2022-10-04T15:25:42;2.90;;;2.00;;
11090;SDS011;5599;52.210;21.046;2022-10-04T15:28:28;5.33;;;1.80;;
11090;SDS011;5599;52.210;21.046;2022-10-04T15:31:10;2.70;;;1.83;;
11090;SDS011;5599;52.210;21.046;2022-10-04T15:33:55;5.30;;;2.00;;
11090;SDS011;5599;52.210;21.046;2022-10-04T15:36:39;3.27;;;1.90;;
11090;SDS011;5599;52.210;21.046;2022-10-04T15:42:53;5.83;;;2.33;;
11090;SDS011;5599;52.210;21.046;2022-10-04T15:45:48;3.30;;;2.07;;
11090;SDS011;5599;52.210;21.046;2022-10-04T15:48:32;5.73;;;2.13;;
11090;SDS011;5599;52.210;21.046;2022-10-04T15:51:24;3.90;;;2.57;;
11090;SDS011;5599;52.210;21.046;2022-10-04T15:54:13;3.43;;;2.50;;
11090;SDS011;5599;52.210;21.046;2022-10-04T15:57:02;7.93;;;2.70;;
11090;SDS011;5599;52.210;21.046;2022-10-04T15:59:47;3.20;;;2.40;;
11090;SDS011;5599;52.210;21.046;2022-10-04T16:05:36;5.10;;;2.90;;
11090;SDS011;5599;52.210;21.046;2022-10-04T16:08:35;4.83;;;2.47;;
11090;SDS011;5599;52.210;21.046;2022-10-04T16:11:33;4.73;;;2.33;;
11090;SDS011;5599;52.210;21.046;2022-10-04T16:14:28;4.07;;;2.60;;
11090;SDS011;5599;52.210;21.046;2022-10-04T16:18:23;3.93;;;2.50;;
11090;SDS011;5599;52.210;21.046;2022-10-04T16:22:11;5.17;;;3.00;;
11090;SDS011;5599;52.210;21.046;2022-10-04T17:26:57;5.90;;;4.10;;
11090;SDS011;5599;52.210;21.046;2022-10-04T17:29:46;9.50;;;5.37;;
11090;SDS011;5599;52.210;21.046;2022-10-04T17:32:32;9.27;;;4.73;;
11090;SDS011;5599;52.210;21.046;2022-10-04T17:35:12;8.27;;;4.63;;
11090;SDS011;5599;52.210;21.046;2022-10-04T17:38:06;8.20;;;4.90;;
11090;SDS011;5599;52.210;21.046;2022-10-04T17:40:44;13.67;;;5.30;;
11090;SDS011;5599;52.210;21.046;2022-10-04T17:43:25;7.83;;;4.83;;
11090;SDS011;5599;52.210;21.046;2022-10-04T17:46:10;6.33;;;5.00;;
11090;SDS011;5599;52.210;21.046;2022-10-04T17:48:52;5.73;;;4.87;;
11090;SDS011;5599;52.210;21.046;2022-10-04T17:51:44;10.13;;;5.13;;
11090;SDS011;5599;52.210;21.046;2022-10-04T17:54:38;9.30;;;5.20;;
11090;SDS011;5599;52.210;21.046;2022-10-04T17:57:36;8.33;;;5.20;;
11090;SDS011;5599;52.210;21.046;2022-10-04T18:00:15;7.53;;;4.97;;
11090;SDS011;5599;52.210;21.046;2022-10-04T18:03:04;12.73;;;5.50;;
11090;SDS011;5599;52.210;21.046;2022-10-04T18:05:44;6.93;;;4.80;;
11090;SDS011;5599;52.210;21.046;2022-10-04T18:08:19;9.00;;;5.13;;
11090;SDS011;5599;52.210;21.046;2022-10-04T18:10:56;9.50;;;5.20;;
11090;SDS011;5599;52.210;21.046;2022-10-04T18:13:30;9.17;;;5.50;;
11090;SDS011;5599;52.210;21.046;2022-10-04T18:16:09;8.20;;;5.40;;
11090;SDS011;5599;52.210;21.046;2022-10-04T18:18:48;7.27;;;4.97;;
11090;SDS011;5599;52.210;21.046;2022-10-04T18:21:22;7.00;;;5.40;;
11090;SDS011;5599;52.210;21.046;2022-10-04T18:23:55;7.70;;;5.07;;
11090;SDS011;5599;52.210;21.046;2022-10-04T18:26:27;7.43;;;4.90;;
11090;SDS011;5599;52.210;21.046;2022-10-04T18:28:59;7.53;;;5.07;;
11090;SDS011;5599;52.210;21.046;2022-10-04T18:31:33;6.73;;;5.20;;
11090;SDS011;5599;52.210;21.046;2022-10-04T18:34:15;6.83;;;5.10;;
11090;SDS011;5599;52.210;21.046;2022-10-04T18:36:50;7.63;;;5.67;;
11090;SDS011;5599;52.210;21.046;2022-10-04T18:39:23;8.27;;;5.80;;
11090;SDS011;5599;52.210;21.046;2022-10-04T18:41:54;6.83;;;5.13;;
11090;SDS011;5599;52.210;21.046;2022-10-04T18:44:28;9.07;;;5.70;;
11090;SDS011;5599;52.210;21.046;2022-10-04T18:47:16;10.13;;;6.07;;
11090;SDS011;5599;52.210;21.046;2022-10-04T18:49:55;9.17;;;6.00;;
11090;SDS011;5599;52.210;21.046;2022-10-04T18:52:34;8.13;;;6.07;;
11090;SDS011;5599;52.210;21.046;2022-10-04T18:55:15;9.80;;;6.53;;
11090;SDS011;5599;52.210;21.046;2022-10-04T18:57:58;7.83;;;6.13;;
11090;SDS011;5599;52.210;21.046;2022-10-04T19:00:56;8.37;;;6.53;;
11090;SDS011;5599;52.210;21.046;2022-10-04T19:03:55;10.77;;;6.80;;
11090;SDS011;5599;52.210;21.046;2022-10-04T19:06:32;9.87;;;6.63;;
11090;SDS011;5599;52.210;21.046;2022-10-04T19:09:05;12.53;;;7.00;;
11090;SDS011;5599;52.210;21.046;2022-10-04T19:11:46;9.90;;;6.27;;
11090;SDS011;5599;52.210;21.046;2022-10-04T19:14:43;8.70;;;6.40;;